sensor_id;sensor_type;location;lat;lon;timestamp;P1;durP1;ratioP1;P2;durP2;ratioP2
39242;SDS011;29823;47.404;8.566;2022-09-03T00:01:44;10.63;;;5.97;;
39242;SDS011;29823;47.404;8.566;2022-09-03T00:04:21;6.65;;;5.40;;
39242;SDS011;29823;47.404;8.566;2022-09-03T00:06:56;7.13;;;5.30;;
39242;SDS011;29823;47.404;8.566;2022-09-03T00:09:30;9.48;;;6.68;;
39242;SDS011;29823;47.404;8.566;2022-09-03T00:12:01;9.75;;;7.15;;
39242;SDS011;29823;47.404;8.566;2022-09-03T00:14:36;9.88;;;7.15;;
39242;SDS011;29823;47.404;8.566;2022-09-03T00:17:08;12.68;;;6.68;;
39242;SDS011;29823;47.404;8.566;2022-09-03T00:19:44;10.30;;;6.78;;
39242;SDS011;29823;47.404;8.566;2022-09-03T00:22:19;11.15;;;8.05;;
39242;SDS011;29823;47.404;8.566;2022-09-03T00:24:51;10.30;;;6.47;;
39242;SDS011;29823;47.404;8.566;2022-09-03T00:27:20;9.80;;;6.97;;
39242;SDS011;29823;47.404;8.566;2022-09-03T00:29:53;11.63;;;7.32;;
39242;SDS011;29823;47.404;8.566;2022-09-03T00:32:24;13.75;;;7.10;;
39242;SDS011;29823;47.404;8.566;2022-09-03T00:35:03;9.68;;;7.50;;
39242;SDS011;29823;47.404;8.566;2022-09-03T00:37:36;8.77;;;6.90;;
39242;SDS011;29823;47.404;8.566;2022-09-03T00:40:05;9.32;;;6.80;;
39242;SDS011;29823;47.404;8.566;2022-09-03T00:42:44;10.02;;;6.25;;
39242;SDS011;29823;47.404;8.566;2022-09-03T00:45:21;9.13;;;6.88;;
39242;SDS011;29823;47.404;8.566;2022-09-03T00:48:02;33.65;;;9.85;;
39242;SDS011;29823;47.404;8.566;2022-09-03T00:50:48;17.25;;;9.65;;
39242;SDS011;29823;47.404;8.566;2022-09-03T00:53:29;20.52;;;10.05;;
39242;SDS011;29823;47.404;8.566;2022-09-03T00:56:05;14.93;;;10.95;;
39242;SDS011;29823;47.404;8.566;2022-09-03T00:58:47;19.15;;;10.60;;
39242;SDS011;29823;47.404;8.566;2022-09-03T01:01:23;14.85;;;10.88;;
39242;SDS011;29823;47.404;8.566;2022-09-03T01:04:00;13.90;;;11.23;;
39242;SDS011;29823;47.404;8.566;2022-09-03T01:06:41;17.00;;;12.73;;
39242;SDS011;29823;47.404;8.566;2022-09-03T01:09:22;19.17;;;11.73;;
39242;SDS011;29823;47.404;8.566;2022-09-03T01:12:02;13.52;;;10.45;;
39242;SDS011;29823;47.404;8.566;2022-09-03T01:14:43;12.25;;;9.30;;
39242;SDS011;29823;47.404;8.566;2022-09-03T01:17:27;13.63;;;9.70;;
39242;SDS011;29823;47.404;8.566;2022-09-03T01:26:27;15.75;;;11.88;;
39242;SDS011;29823;47.404;8.566;2022-09-03T01:29:05;18.25;;;11.23;;
39242;SDS011;29823;47.404;8.566;2022-09-03T01:31:45;15.45;;;11.20;;
39242;SDS011;29823;47.404;8.566;2022-09-03T01:34:25;17.98;;;12.60;;
39242;SDS011;29823;47.404;8.566;2022-09-03T01:37:06;16.00;;;11.37;;
39242;SDS011;29823;47.404;8.566;2022-09-03T01:39:43;15.20;;;10.88;;
39242;SDS011;29823;47.404;8.566;2022-09-03T01:42:20;16.02;;;11.80;;
39242;SDS011;29823;47.404;8.566;2022-09-03T01:44:57;17.70;;;13.07;;
39242;SDS011;29823;47.404;8.566;2022-09-03T01:47:48;18.88;;;13.25;;
39242;SDS011;29823;47.404;8.566;2022-09-03T01:50:32;20.97;;;13.37;;
39242;SDS011;29823;47.404;8.566;2022-09-03T01:53:07;16.55;;;12.35;;
39242;SDS011;29823;47.404;8.566;2022-09-03T01:55:46;27.90;;;21.45;;
39242;SDS011;29823;47.404;8.566;2022-09-03T01:58:26;23.17;;;13.07;;
39242;SDS011;29823;47.404;8.566;2022-09-03T02:01:02;13.88;;;11.10;;
39242;SDS011;29823;47.404;8.566;2022-09-03T02:03:37;13.40;;;10.57;;
39242;SDS011;29823;47.404;8.566;2022-09-03T02:06:08;15.45;;;10.43;;
39242;SDS011;29823;47.404;8.566;2022-09-03T02:08:38;17.92;;;9.18;;
39242;SDS011;29823;47.404;8.566;2022-09-03T02:11:07;12.27;;;9.38;;
39242;SDS011;29823;47.404;8.566;2022-09-03T02:13:37;11.75;;;9.20;;
39242;SDS011;29823;47.404;8.566;2022-09-03T02:16:10;11.90;;;9.02;;
39242;SDS011;29823;47.404;8.566;2022-09-03T02:18:41;10.63;;;8.30;;
39242;SDS011;29823;47.404;8.566;2022-09-03T02:21:12;12.77;;;8.50;;
39242;SDS011;29823;47.404;8.566;2022-09-03T02:23:43;9.95;;;7.32;;
39242;SDS011;29823;47.404;8.566;2022-09-03T02:26:10;10.10;;;7.38;;
39242;SDS011;29823;47.404;8.566;2022-09-03T02:28:42;6.85;;;5.72;;
39242;SDS011;29823;47.404;8.566;2022-09-03T02:31:12;8.00;;;6.03;;
39242;SDS011;29823;47.404;8.566;2022-09-03T02:33:41;8.40;;;5.25;;
39242;SDS011;29823;47.404;8.566;2022-09-03T02:36:11;13.18;;;7.93;;
39242;SDS011;29823;47.404;8.566;2022-09-03T02:38:41;19.95;;;11.82;;
39242;SDS011;29823;47.404;8.566;2022-09-03T02:41:09;17.25;;;9.70;;
39242;SDS011;29823;47.404;8.566;2022-09-03T02:43:39;12.40;;;7.65;;
39242;SDS011;29823;47.404;8.566;2022-09-03T02:46:12;9.23;;;6.43;;
39242;SDS011;29823;47.404;8.566;2022-09-03T02:48:47;8.73;;;6.50;;
39242;SDS011;29823;47.404;8.566;2022-09-03T02:51:15;14.10;;;7.38;;
39242;SDS011;29823;47.404;8.566;2022-09-03T02:53:43;10.93;;;6.57;;
39242;SDS011;29823;47.404;8.566;2022-09-03T02:56:11;10.23;;;7.07;;
39242;SDS011;29823;47.404;8.566;2022-09-03T02:58:39;9.18;;;6.43;;
39242;SDS011;29823;47.404;8.566;2022-09-03T03:01:07;16.15;;;7.97;;
39242;SDS011;29823;47.404;8.566;2022-09-03T03:03:36;11.60;;;7.40;;
39242;SDS011;29823;47.404;8.566;2022-09-03T03:06:04;8.85;;;6.93;;
39242;SDS011;29823;47.404;8.566;2022-09-03T03:08:33;12.50;;;7.82;;
39242;SDS011;29823;47.404;8.566;2022-09-03T03:11:00;13.90;;;8.98;;
39242;SDS011;29823;47.404;8.566;2022-09-03T03:13:29;21.27;;;12.13;;
39242;SDS011;29823;47.404;8.566;2022-09-03T03:15:57;11.10;;;7.47;;
39242;SDS011;29823;47.404;8.566;2022-09-03T03:18:25;9.65;;;7.28;;
39242;SDS011;29823;47.404;8.566;2022-09-03T03:20:55;11.13;;;8.18;;
39242;SDS011;29823;47.404;8.566;2022-09-03T03:23:23;11.43;;;7.60;;
39242;SDS011;29823;47.404;8.566;2022-09-03T03:25:51;10.50;;;7.22;;
39242;SDS011;29823;47.404;8.566;2022-09-03T03:28:18;10.38;;;6.97;;
39242;SDS011;29823;47.404;8.566;2022-09-03T03:30:46;10.15;;;7.57;;
39242;SDS011;29823;47.404;8.566;2022-09-03T03:33:14;11.57;;;7.88;;
39242;SDS011;29823;47.404;8.566;2022-09-03T03:35:42;11.63;;;8.02;;
39242;SDS011;29823;47.404;8.566;2022-09-03T03:38:11;14.90;;;10.88;;
39242;SDS011;29823;47.404;8.566;2022-09-03T03:40:39;10.93;;;7.65;;
39242;SDS011;29823;47.404;8.566;2022-09-03T03:43:06;9.32;;;6.85;;
39242;SDS011;29823;47.404;8.566;2022-09-03T03:45:34;11.27;;;7.28;;
39242;SDS011;29823;47.404;8.566;2022-09-03T03:48:02;7.95;;;7.10;;
39242;SDS011;29823;47.404;8.566;2022-09-03T03:50:30;10.43;;;7.57;;
39242;SDS011;29823;47.404;8.566;2022-09-03T03:52:58;7.88;;;6.32;;
39242;SDS011;29823;47.404;8.566;2022-09-03T03:55:28;10.15;;;6.45;;
39242;SDS011;29823;47.404;8.566;2022-09-03T03:58:00;9.48;;;6.85;;
39242;SDS011;29823;47.404;8.566;2022-09-03T04:00:28;7.93;;;6.40;;
39242;SDS011;29823;47.404;8.566;2022-09-03T04:02:56;8.55;;;6.68;;
39242;SDS011;29823;47.404;8.566;2022-09-03T04:05:25;10.13;;;6.15;;
39242;SDS011;29823;47.404;8.566;2022-09-03T04:07:59;10.68;;;5.68;;
39242;SDS011;29823;47.404;8.566;2022-09-03T04:10:30;8.25;;;6.30;;
39242;SDS011;29823;47.404;8.566;2022-09-03T04:12:57;10.07;;;6.40;;
39242;SDS011;29823;47.404;8.566;2022-09-03T04:15:26;7.15;;;5.80;;
39242;SDS011;29823;47.404;8.566;2022-09-03T04:17:54;8.90;;;5.72;;
39242;SDS011;29823;47.404;8.566;2022-09-03T04:20:21;7.55;;;6.00;;
39242;SDS011;29823;47.404;8.566;2022-09-03T04:22:49;6.97;;;5.45;;
39242;SDS011;29823;47.404;8.566;2022-09-03T04:25:17;8.45;;;5.82;;
39242;SDS011;29823;47.404;8.566;2022-09-03T04:27:46;10.57;;;5.50;;
39242;SDS011;29823;47.404;8.566;2022-09-03T04:30:15;7.22;;;5.70;;
39242;SDS011;29823;47.404;8.566;2022-09-03T04:32:42;6.35;;;5.00;;
39242;SDS011;29823;47.404;8.566;2022-09-03T04:35:19;10.10;;;5.25;;
39242;SDS011;29823;47.404;8.566;2022-09-03T04:37:48;7.32;;;4.93;;
39242;SDS011;29823;47.404;8.566;2022-09-03T04:40:16;7.10;;;5.15;;
39242;SDS011;29823;47.404;8.566;2022-09-03T04:42:44;6.57;;;5.13;;
39242;SDS011;29823;47.404;8.566;2022-09-03T04:45:13;5.78;;;4.50;;
39242;SDS011;29823;47.404;8.566;2022-09-03T04:47:44;5.47;;;4.03;;
39242;SDS011;29823;47.404;8.566;2022-09-03T04:50:12;8.60;;;4.57;;
39242;SDS011;29823;47.404;8.566;2022-09-03T04:52:40;8.82;;;4.40;;
39242;SDS011;29823;47.404;8.566;2022-09-03T04:55:08;5.28;;;4.53;;
39242;SDS011;29823;47.404;8.566;2022-09-03T04:57:37;7.57;;;4.63;;
39242;SDS011;29823;47.404;8.566;2022-09-03T05:00:05;4.55;;;4.13;;
39242;SDS011;29823;47.404;8.566;2022-09-03T05:02:37;5.45;;;4.32;;
39242;SDS011;29823;47.404;8.566;2022-09-03T05:05:05;5.90;;;4.07;;
39242;SDS011;29823;47.404;8.566;2022-09-03T05:07:33;5.05;;;4.55;;
39242;SDS011;29823;47.404;8.566;2022-09-03T05:10:04;6.40;;;4.28;;
39242;SDS011;29823;47.404;8.566;2022-09-03T05:12:33;6.85;;;3.92;;
39242;SDS011;29823;47.404;8.566;2022-09-03T05:15:01;10.40;;;4.82;;
39242;SDS011;29823;47.404;8.566;2022-09-03T05:17:30;7.45;;;4.35;;
39242;SDS011;29823;47.404;8.566;2022-09-03T05:20:04;7.53;;;4.50;;
39242;SDS011;29823;47.404;8.566;2022-09-03T05:22:33;4.60;;;3.95;;
39242;SDS011;29823;47.404;8.566;2022-09-03T05:25:01;7.30;;;4.00;;
39242;SDS011;29823;47.404;8.566;2022-09-03T05:27:30;8.77;;;4.40;;
39242;SDS011;29823;47.404;8.566;2022-09-03T05:29:58;8.18;;;3.63;;
39242;SDS011;29823;47.404;8.566;2022-09-03T05:32:28;8.68;;;4.18;;
39242;SDS011;29823;47.404;8.566;2022-09-03T05:34:56;8.13;;;4.47;;
39242;SDS011;29823;47.404;8.566;2022-09-03T05:37:25;5.45;;;4.30;;
39242;SDS011;29823;47.404;8.566;2022-09-03T05:39:53;9.30;;;4.55;;
39242;SDS011;29823;47.404;8.566;2022-09-03T05:42:21;5.72;;;4.10;;
39242;SDS011;29823;47.404;8.566;2022-09-03T05:44:49;7.22;;;4.20;;
39242;SDS011;29823;47.404;8.566;2022-09-03T05:47:17;18.58;;;14.45;;
39242;SDS011;29823;47.404;8.566;2022-09-03T05:49:44;4.50;;;4.00;;
39242;SDS011;29823;47.404;8.566;2022-09-03T05:52:12;4.60;;;3.80;;
39242;SDS011;29823;47.404;8.566;2022-09-03T05:54:43;31.98;;;13.77;;
39242;SDS011;29823;47.404;8.566;2022-09-03T05:57:12;16.55;;;8.63;;
39242;SDS011;29823;47.404;8.566;2022-09-03T05:59:40;11.23;;;7.07;;
39242;SDS011;29823;47.404;8.566;2022-09-03T06:02:07;6.78;;;3.75;;
39242;SDS011;29823;47.404;8.566;2022-09-03T06:04:37;5.20;;;4.07;;
39242;SDS011;29823;47.404;8.566;2022-09-03T06:07:05;6.38;;;4.00;;
39242;SDS011;29823;47.404;8.566;2022-09-03T06:09:34;20.83;;;12.40;;
39242;SDS011;29823;47.404;8.566;2022-09-03T06:12:03;8.38;;;6.15;;
39242;SDS011;29823;47.404;8.566;2022-09-03T06:14:31;9.20;;;4.32;;
39242;SDS011;29823;47.404;8.566;2022-09-03T06:16:59;5.63;;;4.13;;
39242;SDS011;29823;47.404;8.566;2022-09-03T06:19:26;10.13;;;4.10;;
39242;SDS011;29823;47.404;8.566;2022-09-03T06:21:54;6.00;;;4.05;;
39242;SDS011;29823;47.404;8.566;2022-09-03T06:24:22;6.85;;;4.60;;
39242;SDS011;29823;47.404;8.566;2022-09-03T06:26:53;6.95;;;5.13;;
39242;SDS011;29823;47.404;8.566;2022-09-03T06:29:23;8.43;;;6.10;;
39242;SDS011;29823;47.404;8.566;2022-09-03T06:31:50;6.82;;;5.47;;
39242;SDS011;29823;47.404;8.566;2022-09-03T06:34:18;8.80;;;5.47;;
39242;SDS011;29823;47.404;8.566;2022-09-03T06:36:47;7.28;;;5.60;;
39242;SDS011;29823;47.404;8.566;2022-09-03T06:39:15;7.53;;;5.45;;
39242;SDS011;29823;47.404;8.566;2022-09-03T06:41:43;6.85;;;4.65;;
39242;SDS011;29823;47.404;8.566;2022-09-03T06:44:13;5.65;;;5.03;;
39242;SDS011;29823;47.404;8.566;2022-09-03T06:46:42;6.82;;;5.65;;
39242;SDS011;29823;47.404;8.566;2022-09-03T06:49:11;8.85;;;4.75;;
39242;SDS011;29823;47.404;8.566;2022-09-03T06:51:39;6.22;;;4.68;;
39242;SDS011;29823;47.404;8.566;2022-09-03T06:54:09;18.40;;;11.52;;
39242;SDS011;29823;47.404;8.566;2022-09-03T06:56:38;5.03;;;4.53;;
39242;SDS011;29823;47.404;8.566;2022-09-03T06:59:07;11.23;;;3.65;;
39242;SDS011;29823;47.404;8.566;2022-09-03T07:01:36;4.53;;;3.00;;
39242;SDS011;29823;47.404;8.566;2022-09-03T07:04:11;8.23;;;3.40;;
39242;SDS011;29823;47.404;8.566;2022-09-03T07:06:41;5.38;;;3.20;;
39242;SDS011;29823;47.404;8.566;2022-09-03T07:09:10;3.90;;;3.10;;
39242;SDS011;29823;47.404;8.566;2022-09-03T07:11:38;3.25;;;2.83;;
39242;SDS011;29823;47.404;8.566;2022-09-03T07:14:13;6.25;;;3.25;;
39242;SDS011;29823;47.404;8.566;2022-09-03T07:16:41;4.82;;;3.00;;
39242;SDS011;29823;47.404;8.566;2022-09-03T07:19:11;4.82;;;2.80;;
39242;SDS011;29823;47.404;8.566;2022-09-03T07:21:40;3.42;;;2.95;;
39242;SDS011;29823;47.404;8.566;2022-09-03T07:24:15;5.28;;;3.60;;
39242;SDS011;29823;47.404;8.566;2022-09-03T07:26:43;4.78;;;3.50;;
39242;SDS011;29823;47.404;8.566;2022-09-03T07:29:12;6.40;;;2.90;;
39242;SDS011;29823;47.404;8.566;2022-09-03T07:31:41;3.75;;;2.47;;
39242;SDS011;29823;47.404;8.566;2022-09-03T07:34:12;5.70;;;2.75;;
39242;SDS011;29823;47.404;8.566;2022-09-03T07:36:43;3.95;;;2.17;;
39242;SDS011;29823;47.404;8.566;2022-09-03T07:39:14;2.20;;;1.92;;
39242;SDS011;29823;47.404;8.566;2022-09-03T07:41:43;5.13;;;2.58;;
39242;SDS011;29823;47.404;8.566;2022-09-03T07:44:12;4.68;;;2.13;;
39242;SDS011;29823;47.404;8.566;2022-09-03T07:46:41;2.95;;;2.08;;
39242;SDS011;29823;47.404;8.566;2022-09-03T07:49:12;2.42;;;2.03;;
39242;SDS011;29823;47.404;8.566;2022-09-03T07:51:40;3.60;;;2.17;;
39242;SDS011;29823;47.404;8.566;2022-09-03T07:54:09;4.65;;;3.03;;
39242;SDS011;29823;47.404;8.566;2022-09-03T07:56:38;4.32;;;2.70;;
39242;SDS011;29823;47.404;8.566;2022-09-03T07:59:06;3.13;;;2.20;;
39242;SDS011;29823;47.404;8.566;2022-09-03T08:01:37;3.15;;;2.40;;
39242;SDS011;29823;47.404;8.566;2022-09-03T08:04:07;3.10;;;2.10;;
39242;SDS011;29823;47.404;8.566;2022-09-03T08:06:37;4.32;;;2.45;;
39242;SDS011;29823;47.404;8.566;2022-09-03T08:09:06;2.72;;;1.92;;
39242;SDS011;29823;47.404;8.566;2022-09-03T08:11:37;2.30;;;1.80;;
39242;SDS011;29823;47.404;8.566;2022-09-03T08:14:07;3.45;;;2.47;;
39242;SDS011;29823;47.404;8.566;2022-09-03T08:16:37;2.83;;;2.08;;
39242;SDS011;29823;47.404;8.566;2022-09-03T08:19:07;4.63;;;2.03;;
39242;SDS011;29823;47.404;8.566;2022-09-03T08:21:37;3.08;;;2.15;;
39242;SDS011;29823;47.404;8.566;2022-09-03T08:24:07;2.83;;;1.93;;
39242;SDS011;29823;47.404;8.566;2022-09-03T08:26:37;8.93;;;2.72;;
39242;SDS011;29823;47.404;8.566;2022-09-03T08:29:06;3.35;;;2.28;;
39242;SDS011;29823;47.404;8.566;2022-09-03T08:31:35;2.55;;;2.10;;
39242;SDS011;29823;47.404;8.566;2022-09-03T08:34:04;3.15;;;2.35;;
39242;SDS011;29823;47.404;8.566;2022-09-03T08:36:34;5.10;;;2.05;;
39242;SDS011;29823;47.404;8.566;2022-09-03T08:39:05;4.45;;;2.10;;
39242;SDS011;29823;47.404;8.566;2022-09-03T08:41:47;3.95;;;2.10;;
39242;SDS011;29823;47.404;8.566;2022-09-03T08:44:40;3.15;;;2.40;;
39242;SDS011;29823;47.404;8.566;2022-09-03T08:47:13;11.75;;;7.43;;
39242;SDS011;29823;47.404;8.566;2022-09-03T08:49:46;4.43;;;2.50;;
39242;SDS011;29823;47.404;8.566;2022-09-03T08:52:21;2.63;;;2.28;;
39242;SDS011;29823;47.404;8.566;2022-09-03T08:54:57;3.05;;;2.40;;
39242;SDS011;29823;47.404;8.566;2022-09-03T08:57:31;4.15;;;1.83;;
39242;SDS011;29823;47.404;8.566;2022-09-03T09:00:12;4.38;;;2.30;;
39242;SDS011;29823;47.404;8.566;2022-09-03T09:02:43;2.95;;;2.25;;
39242;SDS011;29823;47.404;8.566;2022-09-03T09:05:36;3.60;;;2.10;;
39242;SDS011;29823;47.404;8.566;2022-09-03T09:08:13;2.55;;;2.05;;
39242;SDS011;29823;47.404;8.566;2022-09-03T09:10:51;3.63;;;2.08;;
39242;SDS011;29823;47.404;8.566;2022-09-03T09:13:27;2.40;;;1.98;;
39242;SDS011;29823;47.404;8.566;2022-09-03T09:16:07;3.60;;;2.03;;
39242;SDS011;29823;47.404;8.566;2022-09-03T09:18:43;5.93;;;2.30;;
39242;SDS011;29823;47.404;8.566;2022-09-03T09:21:23;5.80;;;2.15;;
39242;SDS011;29823;47.404;8.566;2022-09-03T09:23:56;5.85;;;2.45;;
39242;SDS011;29823;47.404;8.566;2022-09-03T09:26:30;5.18;;;2.90;;
39242;SDS011;29823;47.404;8.566;2022-09-03T09:29:00;5.90;;;2.75;;
39242;SDS011;29823;47.404;8.566;2022-09-03T09:31:35;6.72;;;2.58;;
39242;SDS011;29823;47.404;8.566;2022-09-03T09:34:04;4.60;;;2.95;;
39242;SDS011;29823;47.404;8.566;2022-09-03T09:36:34;5.32;;;3.40;;
39242;SDS011;29823;47.404;8.566;2022-09-03T09:39:09;7.63;;;3.53;;
39242;SDS011;29823;47.404;8.566;2022-09-03T09:41:42;5.25;;;2.95;;
39242;SDS011;29823;47.404;8.566;2022-09-03T09:44:23;3.88;;;2.92;;
39242;SDS011;29823;47.404;8.566;2022-09-03T09:47:00;5.38;;;3.28;;
39242;SDS011;29823;47.404;8.566;2022-09-03T09:49:32;4.13;;;2.90;;
39242;SDS011;29823;47.404;8.566;2022-09-03T09:52:02;4.13;;;2.78;;
39242;SDS011;29823;47.404;8.566;2022-09-03T09:54:33;4.45;;;2.30;;
39242;SDS011;29823;47.404;8.566;2022-09-03T09:57:03;7.30;;;2.53;;
39242;SDS011;29823;47.404;8.566;2022-09-03T09:59:33;3.37;;;2.20;;
39242;SDS011;29823;47.404;8.566;2022-09-03T10:02:10;4.80;;;2.15;;
39242;SDS011;29823;47.404;8.566;2022-09-03T10:04:47;3.65;;;2.38;;
39242;SDS011;29823;47.404;8.566;2022-09-03T10:07:26;4.55;;;2.50;;
39242;SDS011;29823;47.404;8.566;2022-09-03T10:09:58;3.88;;;2.47;;
39242;SDS011;29823;47.404;8.566;2022-09-03T10:12:31;3.65;;;2.20;;
39242;SDS011;29823;47.404;8.566;2022-09-03T10:15:06;2.28;;;1.92;;
39242;SDS011;29823;47.404;8.566;2022-09-03T10:17:42;4.07;;;2.45;;
39242;SDS011;29823;47.404;8.566;2022-09-03T10:20:21;3.42;;;2.63;;
39242;SDS011;29823;47.404;8.566;2022-09-03T10:22:59;3.20;;;2.63;;
39242;SDS011;29823;47.404;8.566;2022-09-03T10:25:39;5.40;;;2.53;;
39242;SDS011;29823;47.404;8.566;2022-09-03T10:28:18;3.35;;;2.55;;
39242;SDS011;29823;47.404;8.566;2022-09-03T10:31:02;4.60;;;2.78;;
39242;SDS011;29823;47.404;8.566;2022-09-03T10:33:46;4.25;;;2.63;;
39242;SDS011;29823;47.404;8.566;2022-09-03T10:36:19;4.43;;;2.60;;
39242;SDS011;29823;47.404;8.566;2022-09-03T10:38:51;2.47;;;2.28;;
39242;SDS011;29823;47.404;8.566;2022-09-03T10:41:27;3.50;;;2.45;;
39242;SDS011;29823;47.404;8.566;2022-09-03T10:44:17;4.50;;;2.53;;
39242;SDS011;29823;47.404;8.566;2022-09-03T10:47:04;4.07;;;2.22;;
39242;SDS011;29823;47.404;8.566;2022-09-03T10:49:47;3.88;;;2.40;;
39242;SDS011;29823;47.404;8.566;2022-09-03T10:52:25;4.25;;;2.65;;
39242;SDS011;29823;47.404;8.566;2022-09-03T10:55:05;3.72;;;2.70;;
39242;SDS011;29823;47.404;8.566;2022-09-03T10:57:44;3.00;;;2.55;;
39242;SDS011;29823;47.404;8.566;2022-09-03T11:00:18;4.53;;;2.65;;
39242;SDS011;29823;47.404;8.566;2022-09-03T11:03:01;3.53;;;2.30;;
39242;SDS011;29823;47.404;8.566;2022-09-03T11:05:52;4.00;;;2.30;;
39242;SDS011;29823;47.404;8.566;2022-09-03T11:08:26;3.85;;;2.33;;
39242;SDS011;29823;47.404;8.566;2022-09-03T11:10:59;3.30;;;1.95;;
39242;SDS011;29823;47.404;8.566;2022-09-03T11:13:37;2.75;;;1.80;;
39242;SDS011;29823;47.404;8.566;2022-09-03T11:16:12;2.92;;;1.83;;
39242;SDS011;29823;47.404;8.566;2022-09-03T11:18:47;6.80;;;2.25;;
39242;SDS011;29823;47.404;8.566;2022-09-03T11:21:19;7.47;;;3.43;;
39242;SDS011;29823;47.404;8.566;2022-09-03T11:23:50;2.45;;;1.60;;
39242;SDS011;29823;47.404;8.566;2022-09-03T11:26:28;3.38;;;2.00;;
39242;SDS011;29823;47.404;8.566;2022-09-03T11:28:58;4.07;;;2.00;;
39242;SDS011;29823;47.404;8.566;2022-09-03T11:31:37;3.47;;;2.00;;
39242;SDS011;29823;47.404;8.566;2022-09-03T11:34:14;7.05;;;2.50;;
39242;SDS011;29823;47.404;8.566;2022-09-03T11:37:04;3.30;;;2.20;;
39242;SDS011;29823;47.404;8.566;2022-09-03T11:39:42;3.25;;;1.73;;
39242;SDS011;29823;47.404;8.566;2022-09-03T11:42:10;2.95;;;1.90;;
39242;SDS011;29823;47.404;8.566;2022-09-03T11:44:49;1.95;;;1.63;;
39242;SDS011;29823;47.404;8.566;2022-09-03T11:47:22;2.38;;;1.50;;
39242;SDS011;29823;47.404;8.566;2022-09-03T11:49:51;4.18;;;3.10;;
39242;SDS011;29823;47.404;8.566;2022-09-03T11:52:31;2.58;;;1.30;;
39242;SDS011;29823;47.404;8.566;2022-09-03T11:54:59;4.93;;;3.33;;
39242;SDS011;29823;47.404;8.566;2022-09-03T11:57:27;4.30;;;1.67;;
39242;SDS011;29823;47.404;8.566;2022-09-03T12:00:06;1.65;;;1.25;;
39242;SDS011;29823;47.404;8.566;2022-09-03T12:02:40;2.08;;;1.30;;
39242;SDS011;29823;47.404;8.566;2022-09-03T12:05:17;2.33;;;1.50;;
39242;SDS011;29823;47.404;8.566;2022-09-03T12:08:01;2.33;;;1.40;;
39242;SDS011;29823;47.404;8.566;2022-09-03T12:10:45;1.90;;;1.10;;
39242;SDS011;29823;47.404;8.566;2022-09-03T12:13:25;1.60;;;1.02;;
39242;SDS011;29823;47.404;8.566;2022-09-03T12:19:17;6.22;;;1.60;;
39242;SDS011;29823;47.404;8.566;2022-09-03T12:21:52;3.40;;;1.10;;
39242;SDS011;29823;47.404;8.566;2022-09-03T12:24:20;1.35;;;1.20;;
39242;SDS011;29823;47.404;8.566;2022-09-03T12:26:48;1.90;;;1.10;;
39242;SDS011;29823;47.404;8.566;2022-09-03T12:29:21;1.75;;;1.17;;
39242;SDS011;29823;47.404;8.566;2022-09-03T12:31:53;3.42;;;1.23;;
39242;SDS011;29823;47.404;8.566;2022-09-03T12:34:23;2.55;;;1.85;;
39242;SDS011;29823;47.404;8.566;2022-09-03T12:36:52;1.92;;;0.90;;
39242;SDS011;29823;47.404;8.566;2022-09-03T12:39:21;1.27;;;1.17;;
39242;SDS011;29823;47.404;8.566;2022-09-03T12:42:11;3.78;;;1.20;;
39242;SDS011;29823;47.404;8.566;2022-09-03T12:44:46;2.20;;;1.23;;
39242;SDS011;29823;47.404;8.566;2022-09-03T12:47:15;1.40;;;1.00;;
39242;SDS011;29823;47.404;8.566;2022-09-03T12:50:06;1.75;;;1.23;;
39242;SDS011;29823;47.404;8.566;2022-09-03T12:52:37;2.30;;;1.67;;
39242;SDS011;29823;47.404;8.566;2022-09-03T12:55:11;1.85;;;1.30;;
39242;SDS011;29823;47.404;8.566;2022-09-03T12:57:53;2.25;;;1.30;;
39242;SDS011;29823;47.404;8.566;2022-09-03T13:00:28;1.45;;;1.10;;
39242;SDS011;29823;47.404;8.566;2022-09-03T13:02:59;5.45;;;1.20;;
39242;SDS011;29823;47.404;8.566;2022-09-03T13:05:33;2.40;;;1.50;;
39242;SDS011;29823;47.404;8.566;2022-09-03T13:08:07;2.58;;;1.40;;
39242;SDS011;29823;47.404;8.566;2022-09-03T13:10:37;2.45;;;1.25;;
39242;SDS011;29823;47.404;8.566;2022-09-03T13:13:15;3.95;;;1.33;;
39242;SDS011;29823;47.404;8.566;2022-09-03T13:16:04;3.22;;;1.13;;
39242;SDS011;29823;47.404;8.566;2022-09-03T13:18:42;1.42;;;1.00;;
39242;SDS011;29823;47.404;8.566;2022-09-03T13:21:19;1.92;;;1.17;;
39242;SDS011;29823;47.404;8.566;2022-09-03T13:24:04;2.63;;;1.00;;
39242;SDS011;29823;47.404;8.566;2022-09-03T13:26:44;1.40;;;1.10;;
39242;SDS011;29823;47.404;8.566;2022-09-03T13:29:28;2.22;;;1.17;;
39242;SDS011;29823;47.404;8.566;2022-09-03T13:32:22;1.00;;;0.90;;
39242;SDS011;29823;47.404;8.566;2022-09-03T13:34:56;1.55;;;1.10;;
39242;SDS011;29823;47.404;8.566;2022-09-03T13:37:32;3.83;;;1.33;;
39242;SDS011;29823;47.404;8.566;2022-09-03T13:40:10;4.35;;;1.13;;
39242;SDS011;29823;47.404;8.566;2022-09-03T13:42:43;4.70;;;1.80;;
39242;SDS011;29823;47.404;8.566;2022-09-03T13:45:22;0.95;;;0.88;;
39242;SDS011;29823;47.404;8.566;2022-09-03T13:47:58;1.20;;;0.93;;
39242;SDS011;29823;47.404;8.566;2022-09-03T13:50:52;2.83;;;1.27;;
39242;SDS011;29823;47.404;8.566;2022-09-03T13:53:35;2.00;;;1.33;;
39242;SDS011;29823;47.404;8.566;2022-09-03T13:56:14;4.32;;;1.17;;
39242;SDS011;29823;47.404;8.566;2022-09-03T13:58:46;3.35;;;1.23;;
39242;SDS011;29823;47.404;8.566;2022-09-03T14:03:51;2.70;;;1.05;;
39242;SDS011;29823;47.404;8.566;2022-09-03T14:06:28;2.58;;;1.75;;
39242;SDS011;29823;47.404;8.566;2022-09-03T14:09:11;2.75;;;1.38;;
39242;SDS011;29823;47.404;8.566;2022-09-03T14:11:47;3.65;;;1.65;;
39242;SDS011;29823;47.404;8.566;2022-09-03T14:14:28;1.80;;;1.50;;
39242;SDS011;29823;47.404;8.566;2022-09-03T14:17:07;2.00;;;1.60;;
39242;SDS011;29823;47.404;8.566;2022-09-03T14:19:41;2.25;;;1.42;;
39242;SDS011;29823;47.404;8.566;2022-09-03T14:22:14;2.45;;;1.50;;
39242;SDS011;29823;47.404;8.566;2022-09-03T14:24:49;1.58;;;1.45;;
39242;SDS011;29823;47.404;8.566;2022-09-03T14:27:24;2.72;;;1.50;;
39242;SDS011;29823;47.404;8.566;2022-09-03T14:29:53;4.57;;;1.70;;
39242;SDS011;29823;47.404;8.566;2022-09-03T14:32:27;3.58;;;1.70;;
39242;SDS011;29823;47.404;8.566;2022-09-03T14:35:11;6.65;;;1.50;;
39242;SDS011;29823;47.404;8.566;2022-09-03T14:40:43;1.30;;;1.20;;
39242;SDS011;29823;47.404;8.566;2022-09-03T14:43:19;2.35;;;1.20;;
39242;SDS011;29823;47.404;8.566;2022-09-03T14:46:00;2.40;;;1.90;;
39242;SDS011;29823;47.404;8.566;2022-09-03T14:51:48;2.17;;;1.50;;
39242;SDS011;29823;47.404;8.566;2022-09-03T14:57:43;1.65;;;1.25;;
39242;SDS011;29823;47.404;8.566;2022-09-03T15:00:20;2.42;;;1.42;;
39242;SDS011;29823;47.404;8.566;2022-09-03T15:09:03;1.77;;;1.52;;
39242;SDS011;29823;47.404;8.566;2022-09-03T15:11:47;7.93;;;5.63;;
39242;SDS011;29823;47.404;8.566;2022-09-03T15:14:21;2.40;;;1.70;;
39242;SDS011;29823;47.404;8.566;2022-09-03T15:16:55;6.35;;;3.53;;
39242;SDS011;29823;47.404;8.566;2022-09-03T15:19:42;2.22;;;1.50;;
39242;SDS011;29823;47.404;8.566;2022-09-03T15:22:25;2.28;;;1.70;;
39242;SDS011;29823;47.404;8.566;2022-09-03T15:27:44;5.53;;;2.00;;
39242;SDS011;29823;47.404;8.566;2022-09-03T15:30:21;3.05;;;1.90;;
39242;SDS011;29823;47.404;8.566;2022-09-03T15:32:52;2.88;;;1.63;;
39242;SDS011;29823;47.404;8.566;2022-09-03T15:35:44;3.90;;;1.98;;
39242;SDS011;29823;47.404;8.566;2022-09-03T15:38:30;3.13;;;1.70;;
39242;SDS011;29823;47.404;8.566;2022-09-03T15:41:08;2.22;;;1.60;;
39242;SDS011;29823;47.404;8.566;2022-09-03T15:43:45;3.35;;;1.60;;
39242;SDS011;29823;47.404;8.566;2022-09-03T15:46:30;3.65;;;1.70;;
39242;SDS011;29823;47.404;8.566;2022-09-03T15:49:20;2.85;;;1.70;;
39242;SDS011;29823;47.404;8.566;2022-09-03T15:51:58;1.83;;;1.52;;